createdAt,value
2023-02-12T00:01:23.655Z,6.60
2023-02-12T00:03:52.309Z,6.60
2023-02-12T00:06:20.541Z,6.50
2023-02-12T00:08:51.998Z,6.50
2023-02-12T00:11:23.883Z,6.50
2023-02-12T00:13:52.513Z,6.50
2023-02-12T00:16:23.779Z,6.40
2023-02-12T00:18:56.883Z,6.40
2023-02-12T00:21:25.673Z,6.30
2023-02-12T00:23:53.372Z,6.30
2023-02-12T00:26:24.018Z,6.30
2023-02-12T00:28:52.975Z,6.30
2023-02-12T00:31:29.886Z,6.30
2023-02-12T00:34:00.245Z,6.30
2023-02-12T00:36:31.831Z,6.30
2023-02-12T00:39:02.016Z,6.20
2023-02-12T00:41:31.321Z,6.20
2023-02-12T00:44:02.800Z,6.20
2023-02-12T00:46:31.386Z,6.20
2023-02-12T00:48:59.512Z,6.20
2023-02-12T00:51:27.914Z,6.10
2023-02-12T00:53:55.938Z,6.10
2023-02-12T00:56:24.456Z,6.10
2023-02-12T00:58:52.391Z,6.10
2023-02-12T01:01:20.696Z,6.10
2023-02-12T01:03:54.526Z,6.10
2023-02-12T01:06:22.870Z,6.10
2023-02-12T01:08:54.048Z,6.00
2023-02-12T01:11:22.537Z,6.00
2023-02-12T01:13:50.549Z,6.00
2023-02-12T01:16:22.053Z,5.90
2023-02-12T01:18:55.439Z,5.90
2023-02-12T01:21:29.702Z,5.90
2023-02-12T01:23:59.101Z,5.90
2023-02-12T01:26:28.617Z,5.80
2023-02-12T01:29:00.039Z,5.80
2023-02-12T01:31:31.682Z,5.80
2023-02-12T01:34:01.826Z,5.80
2023-02-12T01:36:30.964Z,5.80
2023-02-12T01:39:00.540Z,5.70
2023-02-12T01:41:32.626Z,5.80
2023-02-12T01:44:21.722Z,5.80
2023-02-12T01:47:01.803Z,5.70
2023-02-12T01:49:58.979Z,5.70
2023-02-12T01:52:31.260Z,5.70
2023-02-12T01:55:03.482Z,5.70
2023-02-12T01:57:34.638Z,5.70
2023-02-12T02:00:06.437Z,5.60
2023-02-12T02:02:44.902Z,5.60
2023-02-12T02:05:23.969Z,5.60
2023-02-12T02:07:53.139Z,5.60
2023-02-12T02:10:21.070Z,5.50
2023-02-12T02:13:07.990Z,5.50
2023-02-12T02:15:39.033Z,5.50
2023-02-12T02:18:29.934Z,5.40
2023-02-12T02:21:15.519Z,5.40
2023-02-12T02:23:57.978Z,5.40
2023-02-12T02:26:36.891Z,5.30
2023-02-12T02:29:05.027Z,5.30
2023-02-12T02:31:59.545Z,5.30
2023-02-12T02:34:40.408Z,5.30
2023-02-12T02:37:19.397Z,5.30
2023-02-12T02:39:54.482Z,5.20
2023-02-12T02:42:38.261Z,5.20
2023-02-12T02:45:22.000Z,5.30
2023-02-12T02:47:55.574Z,5.30
2023-02-12T02:50:27.027Z,5.40
2023-02-12T02:53:10.320Z,5.40
2023-02-12T02:55:44.790Z,5.50
2023-02-12T02:58:13.905Z,5.50
2023-02-12T03:01:02.917Z,5.50
2023-02-12T03:03:50.325Z,5.50
2023-02-12T03:06:41.432Z,5.50
2023-02-12T03:09:36.824Z,5.50
2023-02-12T03:12:10.670Z,5.50
2023-02-12T03:15:01.825Z,5.50
2023-02-12T03:17:38.700Z,5.50
2023-02-12T03:20:13.784Z,5.50
2023-02-12T03:22:49.801Z,5.50
2023-02-12T03:25:23.978Z,5.50
2023-02-12T03:28:12.395Z,5.50
2023-02-12T03:31:03.213Z,5.50
2023-02-12T03:33:57.562Z,5.50
2023-02-12T03:36:43.157Z,5.50
2023-02-12T03:39:32.788Z,5.40
2023-02-12T03:42:10.682Z,5.40
2023-02-12T03:44:47.705Z,5.40
2023-02-12T03:47:28.466Z,5.40
2023-02-12T03:50:05.282Z,5.40
2023-02-12T03:52:36.260Z,5.40
2023-02-12T03:55:05.591Z,5.40
2023-02-12T03:57:39.805Z,5.40
2023-02-12T04:00:13.499Z,5.30
2023-02-12T04:02:45.904Z,5.20
2023-02-12T04:05:20.828Z,5.20
2023-02-12T04:07:51.614Z,5.10
2023-02-12T04:10:29.196Z,5.10
2023-02-12T04:13:26.722Z,5.00
2023-02-12T04:16:23.953Z,5.00
2023-02-12T04:18:53.614Z,4.90
2023-02-12T04:21:55.467Z,4.90
2023-02-12T04:24:52.644Z,4.90
2023-02-12T04:27:51.392Z,4.80
2023-02-12T04:30:32.401Z,4.80
2023-02-12T04:33:12.582Z,4.80
2023-02-12T04:35:46.426Z,4.70
2023-02-12T04:38:44.116Z,4.70
2023-02-12T04:41:12.687Z,4.70
2023-02-12T04:43:40.452Z,4.60
2023-02-12T04:46:09.636Z,4.60
2023-02-12T04:48:49.835Z,4.60
2023-02-12T04:51:17.962Z,4.60
2023-02-12T04:53:45.725Z,4.60
2023-02-12T04:56:14.732Z,4.50
2023-02-12T04:58:44.368Z,4.50
2023-02-12T05:01:13.002Z,4.50
2023-02-12T05:03:42.275Z,4.50
2023-02-12T05:06:10.540Z,4.50
2023-02-12T05:08:38.792Z,4.50
2023-02-12T05:11:09.979Z,4.50
2023-02-12T05:13:39.389Z,4.50
2023-02-12T05:16:09.864Z,4.50
2023-02-12T05:18:40.212Z,4.50
2023-02-12T05:21:09.068Z,4.40
2023-02-12T05:23:40.652Z,4.40
2023-02-12T05:26:16.638Z,4.40
2023-02-12T05:28:45.797Z,4.40
2023-02-12T05:31:21.258Z,4.40
2023-02-12T05:33:50.700Z,4.40
2023-02-12T05:36:22.308Z,4.40
2023-02-12T05:38:58.220Z,4.40
2023-02-12T05:41:28.187Z,4.40
2023-02-12T05:43:56.535Z,4.40
2023-02-12T05:46:25.518Z,4.30
2023-02-12T05:48:54.393Z,4.40
2023-02-12T05:51:27.708Z,4.30
2023-02-12T05:54:03.133Z,4.30
2023-02-12T05:56:44.488Z,4.30
2023-02-12T05:59:22.499Z,4.30
2023-02-12T06:01:52.833Z,4.40
2023-02-12T06:04:24.785Z,4.40
2023-02-12T06:06:54.131Z,4.40
2023-02-12T06:09:23.237Z,4.40
2023-02-12T06:11:52.126Z,4.50
2023-02-12T06:14:21.565Z,4.50
2023-02-12T06:16:51.282Z,4.50
2023-02-12T06:19:20.714Z,4.60
2023-02-12T06:21:48.795Z,4.60
2023-02-12T06:24:18.274Z,4.70
2023-02-12T06:26:46.482Z,4.80
2023-02-12T06:29:15.302Z,4.90
2023-02-12T06:31:43.695Z,5.00
2023-02-12T06:34:14.275Z,5.10
2023-02-12T06:36:47.500Z,5.20
2023-02-12T06:39:17.728Z,5.40
2023-02-12T06:41:46.004Z,5.50
2023-02-12T06:44:14.175Z,5.60
2023-02-12T06:46:42.476Z,5.80
2023-02-12T06:49:13.916Z,6.00
2023-02-12T06:51:42.756Z,6.20
2023-02-12T06:54:18.488Z,6.30
2023-02-12T06:56:46.848Z,6.50
2023-02-12T06:59:17.604Z,6.70
2023-02-12T07:01:45.827Z,6.90
2023-02-12T07:04:14.124Z,7.10
2023-02-12T07:06:42.299Z,7.30
2023-02-12T07:09:09.983Z,7.40
2023-02-12T07:11:38.912Z,7.60
2023-02-12T07:14:07.617Z,7.80
2023-02-12T07:16:38.803Z,8.00
2023-02-12T07:19:06.809Z,8.20
2023-02-12T07:21:34.677Z,8.40
2023-02-12T07:24:02.859Z,8.60
2023-02-12T07:26:30.723Z,8.80
2023-02-12T07:28:59.660Z,8.90
2023-02-12T07:31:28.154Z,9.10
2023-02-12T07:33:58.809Z,9.30
2023-02-12T07:36:29.222Z,9.50
2023-02-12T07:38:59.350Z,9.60
2023-02-12T07:41:30.113Z,9.80
2023-02-12T07:44:00.857Z,9.90
2023-02-12T07:46:32.298Z,10.10
2023-02-12T07:49:03.193Z,10.30
2023-02-12T07:51:33.228Z,10.40
2023-02-12T07:54:02.240Z,10.50
2023-02-12T07:56:33.179Z,10.70
2023-02-12T07:59:04.647Z,10.90
2023-02-12T08:01:38.088Z,11.10
2023-02-12T08:04:09.028Z,11.10
2023-02-12T08:06:40.217Z,11.10
2023-02-12T08:09:10.510Z,11.20
2023-02-12T08:11:40.084Z,11.40
2023-02-12T08:14:08.297Z,11.60
2023-02-12T08:16:41.521Z,11.70
2023-02-12T08:19:18.633Z,11.80
2023-02-12T08:21:53.016Z,12.00
2023-02-12T08:24:22.565Z,12.20
2023-02-12T08:26:51.343Z,12.30
2023-02-12T08:29:25.296Z,12.40
2023-02-12T08:32:01.081Z,12.50
2023-02-12T08:34:31.960Z,12.70
2023-02-12T08:37:00.707Z,12.80
2023-02-12T08:39:30.427Z,12.80
2023-02-12T08:42:00.377Z,13.10
2023-02-12T08:44:29.501Z,13.40
2023-02-12T08:46:57.358Z,13.70
2023-02-12T08:49:28.627Z,14.00
2023-02-12T08:51:58.120Z,14.20
2023-02-12T08:54:28.216Z,14.30
2023-02-12T08:56:58.337Z,14.20
2023-02-12T08:59:26.953Z,14.40
2023-02-12T09:01:55.345Z,14.70
2023-02-12T09:04:26.160Z,15.20
2023-02-12T09:06:54.706Z,15.30
2023-02-12T09:09:22.626Z,15.40
2023-02-12T09:11:51.032Z,15.70
2023-02-12T09:14:24.832Z,15.60
2023-02-12T09:16:54.384Z,16.00
2023-02-12T09:19:22.530Z,16.40
2023-02-12T09:21:56.442Z,16.70
2023-02-12T09:24:28.407Z,16.30
2023-02-12T09:26:57.515Z,16.50
2023-02-12T09:29:25.324Z,16.40
2023-02-12T09:31:53.577Z,16.40
2023-02-12T09:34:21.909Z,16.70
2023-02-12T09:36:50.189Z,17.00
2023-02-12T09:39:18.294Z,17.20
2023-02-12T09:42:09.751Z,17.40
2023-02-12T09:44:43.430Z,17.60
2023-02-12T09:47:24.714Z,18.10
2023-02-12T09:50:11.522Z,17.80
2023-02-12T09:52:40.324Z,18.20
2023-02-12T09:55:16.996Z,18.70
2023-02-12T09:57:45.757Z,18.90
2023-02-12T10:00:24.649Z,18.90
2023-02-12T10:02:54.656Z,19.10
2023-02-12T10:05:32.673Z,19.60
2023-02-12T10:08:11.385Z,19.10
2023-02-12T10:11:07.482Z,18.50
2023-02-12T10:13:56.177Z,18.80
2023-02-12T10:16:42.546Z,19.20
2023-02-12T10:19:29.273Z,19.20
2023-02-12T10:22:21.281Z,19.20
2023-02-12T10:25:19.871Z,19.50
2023-02-12T10:27:52.078Z,19.00
2023-02-12T10:30:31.677Z,18.80
2023-02-12T10:33:13.062Z,19.20
2023-02-12T10:35:51.761Z,20.00
2023-02-12T10:38:30.775Z,19.80
2023-02-12T10:41:02.379Z,19.70
2023-02-12T10:43:30.782Z,20.30
2023-02-12T10:45:58.992Z,21.00
2023-02-12T10:48:39.033Z,21.40
2023-02-12T10:51:10.161Z,20.80
2023-02-12T10:53:44.970Z,21.00
2023-02-12T10:56:13.516Z,21.60
2023-02-12T10:58:51.505Z,22.60
2023-02-12T11:01:39.425Z,23.70
2023-02-12T11:04:21.692Z,24.10
2023-02-12T11:07:00.086Z,24.00
2023-02-12T11:09:36.569Z,24.40
2023-02-12T11:12:04.715Z,25.20
2023-02-12T11:14:32.506Z,24.20
2023-02-12T11:17:03.163Z,23.40
2023-02-12T11:19:32.757Z,23.70
2023-02-12T11:22:14.987Z,24.10
2023-02-12T11:24:42.776Z,24.40
2023-02-12T11:27:16.451Z,25.00
2023-02-12T11:29:46.001Z,25.00
2023-02-12T11:32:20.927Z,25.20
2023-02-12T11:35:07.466Z,25.20
2023-02-12T11:37:40.284Z,25.40
2023-02-12T11:40:16.312Z,25.20
2023-02-12T11:43:08.439Z,25.90
2023-02-12T11:45:59.040Z,26.10
2023-02-12T11:48:35.099Z,25.90
2023-02-12T11:51:06.318Z,26.00
2023-02-12T11:53:37.796Z,26.40
2023-02-12T11:56:11.595Z,26.40
2023-02-12T11:58:40.410Z,26.40
2023-02-12T12:01:20.478Z,26.70
2023-02-12T12:03:58.851Z,26.60
2023-02-12T12:06:32.931Z,26.50
2023-02-12T12:09:12.656Z,27.00
2023-02-12T12:12:25.013Z,28.00
2023-02-12T12:15:25.738Z,27.20
2023-02-12T12:18:49.344Z,27.10
2023-02-12T12:21:34.677Z,26.70
2023-02-12T12:24:16.386Z,27.20
2023-02-12T12:26:50.521Z,27.60
2023-02-12T12:29:27.357Z,28.70
2023-02-12T12:32:03.046Z,28.40
2023-02-12T12:34:31.165Z,28.40
2023-02-12T12:37:36.063Z,29.30
2023-02-12T12:40:22.125Z,28.70
2023-02-12T12:43:04.860Z,28.10
2023-02-12T12:46:02.643Z,28.30
2023-02-12T12:49:00.277Z,29.30
2023-02-12T12:51:47.964Z,29.30
2023-02-12T12:55:00.372Z,29.40
2023-02-12T12:57:46.753Z,29.40
2023-02-12T13:00:52.988Z,29.20
2023-02-12T13:03:41.886Z,29.90
2023-02-12T13:06:39.030Z,30.60
2023-02-12T13:09:12.536Z,30.60
2023-02-12T13:11:46.100Z,30.20
2023-02-12T13:14:30.279Z,30.00
2023-02-12T13:17:07.155Z,30.10
2023-02-12T13:19:56.275Z,30.40
2023-02-12T13:22:37.697Z,29.60
2023-02-12T13:25:22.524Z,28.60
2023-02-12T13:27:52.845Z,28.20
2023-02-12T13:30:29.988Z,28.90
2023-02-12T13:33:12.463Z,29.40
2023-02-12T13:35:45.757Z,29.90
2023-02-12T13:38:40.388Z,30.20
2023-02-12T13:41:12.163Z,30.50
2023-02-12T13:44:07.519Z,31.00
2023-02-12T13:47:14.478Z,29.80
2023-02-12T13:50:23.937Z,29.60
2023-02-12T13:53:02.845Z,29.40
2023-02-12T13:55:54.965Z,29.30
2023-02-12T13:58:32.136Z,29.50
2023-02-12T14:01:05.772Z,29.90
2023-02-12T14:03:34.401Z,29.30
2023-02-12T14:06:21.415Z,29.30
2023-02-12T14:08:53.033Z,28.80
2023-02-12T14:11:26.533Z,28.60
2023-02-12T14:14:06.165Z,27.90
2023-02-12T14:16:33.945Z,27.00
2023-02-12T14:19:39.756Z,26.50
2023-02-12T14:22:27.798Z,24.00
2023-02-12T14:25:01.695Z,21.90
2023-02-12T14:27:46.897Z,20.00
2023-02-12T14:30:24.074Z,19.00
2023-02-12T14:32:56.005Z,18.60
2023-02-12T14:35:45.469Z,18.20
2023-02-12T14:38:16.056Z,18.20
2023-02-12T14:40:45.735Z,18.00
2023-02-12T14:43:33.380Z,17.90
2023-02-12T14:46:22.919Z,17.90
2023-02-12T14:49:01.939Z,17.60
2023-02-12T14:51:43.152Z,17.60
2023-02-12T14:54:28.580Z,17.70
2023-02-12T14:57:01.868Z,17.70
2023-02-12T14:59:34.592Z,17.60
2023-02-12T15:02:04.507Z,17.90
2023-02-12T15:04:37.296Z,18.30
2023-02-12T15:07:13.332Z,18.60
2023-02-12T15:09:51.975Z,18.50
2023-02-12T15:12:43.402Z,18.60
2023-02-12T15:15:34.186Z,18.60
2023-02-12T15:18:16.452Z,18.40
2023-02-12T15:20:55.598Z,18.20
2023-02-12T15:23:40.354Z,17.90
2023-02-12T15:26:17.559Z,17.70
2023-02-12T15:28:51.323Z,17.40
2023-02-12T15:31:23.134Z,16.90
2023-02-12T15:33:52.498Z,16.60
2023-02-12T15:36:24.754Z,16.40
2023-02-12T15:39:05.102Z,16.10
2023-02-12T15:41:32.747Z,15.80
2023-02-12T15:44:21.703Z,15.60
2023-02-12T15:47:01.206Z,15.40
2023-02-12T15:49:38.828Z,15.30
2023-02-12T15:52:19.366Z,15.20
2023-02-12T15:54:49.012Z,15.10
2023-02-12T15:57:25.474Z,15.00
2023-02-12T15:59:56.450Z,14.90
2023-02-12T16:02:33.735Z,14.90
2023-02-12T16:05:04.697Z,14.90
2023-02-12T16:07:37.355Z,14.90
2023-02-12T16:10:06.793Z,14.90
2023-02-12T16:12:38.211Z,14.90
2023-02-12T16:15:06.874Z,14.80
2023-02-12T16:17:38.703Z,14.80
2023-02-12T16:20:20.833Z,14.70
2023-02-12T16:22:50.369Z,14.70
2023-02-12T16:25:28.076Z,14.60
2023-02-12T16:28:04.659Z,14.60
2023-02-12T16:30:34.657Z,14.50
2023-02-12T16:33:02.972Z,14.50
2023-02-12T16:35:33.882Z,14.40
2023-02-12T16:38:41.244Z,14.30
2023-02-12T16:41:26.219Z,14.30
2023-02-12T16:44:02.881Z,14.20
2023-02-12T16:46:33.732Z,14.20
2023-02-12T16:49:03.400Z,14.20
2023-02-12T16:51:34.591Z,14.10
2023-02-12T16:54:05.330Z,14.10
2023-02-12T16:56:39.269Z,14.00
2023-02-12T16:59:07.084Z,14.00
2023-02-12T17:01:37.361Z,13.90
2023-02-12T17:04:14.298Z,13.90
2023-02-12T17:06:42.556Z,13.80
2023-02-12T17:09:11.118Z,13.80
2023-02-12T17:11:38.968Z,13.70
2023-02-12T17:14:07.013Z,13.70
2023-02-12T17:16:35.025Z,13.70
2023-02-12T17:19:02.754Z,13.60
2023-02-12T17:21:40.726Z,13.60
2023-02-12T17:24:23.884Z,13.50
2023-02-12T17:26:53.327Z,13.50
2023-02-12T17:29:24.216Z,13.50
2023-02-12T17:31:56.624Z,13.40
2023-02-12T17:34:25.466Z,13.40
2023-02-12T17:36:54.035Z,13.20
2023-02-12T17:39:22.289Z,13.20
2023-02-12T17:41:50.394Z,13.20
2023-02-12T17:44:18.200Z,13.20
2023-02-12T17:46:46.278Z,13.20
2023-02-12T17:49:14.209Z,13.20
2023-02-12T17:51:43.130Z,13.10
2023-02-12T17:54:10.902Z,13.00
2023-02-12T17:56:39.587Z,12.80
2023-02-12T17:59:08.007Z,12.70
2023-02-12T18:01:36.231Z,12.70
2023-02-12T18:04:04.751Z,12.60
2023-02-12T18:06:32.705Z,12.40
2023-02-12T18:09:02.278Z,12.40
2023-02-12T18:11:31.049Z,12.40
2023-02-12T18:13:59.669Z,12.40
2023-02-12T18:16:31.125Z,12.50
2023-02-12T18:19:00.833Z,12.50
2023-02-12T18:21:28.974Z,12.50
2023-02-12T18:23:57.352Z,12.50
2023-02-12T18:26:25.135Z,12.40
2023-02-12T18:28:54.542Z,12.40
2023-02-12T18:31:22.347Z,12.30
2023-02-12T18:33:50.520Z,12.20
2023-02-12T18:36:20.412Z,12.20
2023-02-12T18:38:57.700Z,12.30
2023-02-12T18:41:31.099Z,12.30
2023-02-12T18:43:59.959Z,12.20
2023-02-12T18:46:32.080Z,12.10
2023-02-12T18:49:01.058Z,12.00
2023-02-12T18:51:37.173Z,12.00
2023-02-12T18:54:08.290Z,12.10
2023-02-12T18:56:39.429Z,12.10
2023-02-12T18:59:08.323Z,12.20
2023-02-12T19:01:37.040Z,12.20
2023-02-12T19:04:08.562Z,12.20
2023-02-12T19:06:42.478Z,12.20
2023-02-12T19:09:11.577Z,12.20
2023-02-12T19:11:40.003Z,12.20
2023-02-12T19:14:08.024Z,12.20
2023-02-12T19:16:36.019Z,12.10
2023-02-12T19:19:03.983Z,12.10
2023-02-12T19:21:31.650Z,12.10
2023-02-12T19:24:02.250Z,12.10
2023-02-12T19:26:30.959Z,12.10
2023-02-12T19:28:59.865Z,12.00
2023-02-12T19:31:33.693Z,12.00
2023-02-12T19:34:05.381Z,12.00
2023-02-12T19:36:36.779Z,11.90
2023-02-12T19:39:06.280Z,11.90
2023-02-12T19:41:41.327Z,11.80
2023-02-12T19:44:13.392Z,11.70
2023-02-12T19:46:42.610Z,11.60
2023-02-12T19:49:18.413Z,11.60
2023-02-12T19:51:46.620Z,11.50
2023-02-12T19:54:16.660Z,11.40
2023-02-12T19:56:44.731Z,11.40
2023-02-12T19:59:20.171Z,11.40
2023-02-12T20:01:49.503Z,11.40
2023-02-12T20:04:20.614Z,11.20
2023-02-12T20:06:52.665Z,11.20
2023-02-12T20:09:21.903Z,11.10
2023-02-12T20:11:50.336Z,11.10
2023-02-12T20:14:18.465Z,11.10
2023-02-12T20:16:48.129Z,11.00
2023-02-12T20:19:23.185Z,10.90
2023-02-12T20:21:55.637Z,10.90
2023-02-12T20:24:25.294Z,11.00
2023-02-12T20:26:54.770Z,11.00
2023-02-12T20:29:22.832Z,11.10
2023-02-12T20:31:51.153Z,11.10
2023-02-12T20:34:20.784Z,11.00
2023-02-12T20:36:49.374Z,11.00
2023-02-12T20:39:19.482Z,11.00
2023-02-12T20:41:47.916Z,10.90
2023-02-12T20:44:20.535Z,10.90
2023-02-12T20:46:50.914Z,10.90
2023-02-12T20:49:22.549Z,10.90
2023-02-12T20:51:51.037Z,10.90
2023-02-12T20:54:18.890Z,10.80
2023-02-12T20:56:46.709Z,10.80
2023-02-12T20:59:14.509Z,10.80
2023-02-12T21:01:42.859Z,10.80
2023-02-12T21:04:13.272Z,10.80
2023-02-12T21:06:41.959Z,10.80
2023-02-12T21:09:11.601Z,10.80
2023-02-12T21:11:41.542Z,10.80
2023-02-12T21:14:21.810Z,10.80
2023-02-12T21:16:52.881Z,10.80
2023-02-12T21:19:20.990Z,10.80
2023-02-12T21:21:49.086Z,10.70
2023-02-12T21:24:21.917Z,10.70
2023-02-12T21:26:51.331Z,10.70
2023-02-12T21:29:20.318Z,10.60
2023-02-12T21:31:49.857Z,10.60
2023-02-12T21:34:21.382Z,10.60
2023-02-12T21:36:50.930Z,10.60
2023-02-12T21:39:26.513Z,10.60
2023-02-12T21:42:01.505Z,10.60
2023-02-12T21:44:31.035Z,10.60
2023-02-12T21:46:59.167Z,10.60
2023-02-12T21:49:28.719Z,10.60
2023-02-12T21:51:59.999Z,10.50
2023-02-12T21:54:28.178Z,10.50
2023-02-12T21:56:57.082Z,10.50
2023-02-12T21:59:25.705Z,10.50
2023-02-12T22:01:56.562Z,10.50
2023-02-12T22:04:24.920Z,10.40
2023-02-12T22:06:53.157Z,10.40
2023-02-12T22:09:22.616Z,10.40
2023-02-12T22:11:52.692Z,10.30
2023-02-12T22:14:22.087Z,10.30
2023-02-12T22:16:50.210Z,10.30
2023-02-12T22:19:18.441Z,10.30
2023-02-12T22:21:46.349Z,10.30
2023-02-12T22:24:16.565Z,10.20
2023-02-12T22:26:45.149Z,10.20
2023-02-12T22:29:15.322Z,10.20
2023-02-12T22:31:45.175Z,10.20
2023-02-12T22:34:16.551Z,10.10
2023-02-12T22:36:45.051Z,10.10
2023-02-12T22:39:14.158Z,10.10
2023-02-12T22:41:43.056Z,10.10
2023-02-12T22:44:13.040Z,10.10
2023-02-12T22:46:42.522Z,10.10
2023-02-12T22:49:10.688Z,10.10
2023-02-12T22:51:39.973Z,10.10
2023-02-12T22:54:08.929Z,10.10
2023-02-12T22:56:36.844Z,10.10
2023-02-12T22:59:04.649Z,10.10
2023-02-12T23:01:32.937Z,10.10
2023-02-12T23:04:01.098Z,10.10
2023-02-12T23:06:32.343Z,10.10
2023-02-12T23:09:03.943Z,10.10
2023-02-12T23:11:33.439Z,10.00
2023-02-12T23:14:01.535Z,10.00
2023-02-12T23:16:29.611Z,10.00
2023-02-12T23:18:59.468Z,10.00
2023-02-12T23:21:28.865Z,10.00
2023-02-12T23:23:57.297Z,10.10
2023-02-12T23:26:25.730Z,10.10
2023-02-12T23:28:54.477Z,10.10
2023-02-12T23:31:22.620Z,10.10
2023-02-12T23:33:50.856Z,10.10
2023-02-12T23:36:18.808Z,10.10
2023-02-12T23:38:46.875Z,10.10
2023-02-12T23:41:14.807Z,10.10
2023-02-12T23:43:42.619Z,10.10
2023-02-12T23:46:10.544Z,10.10
2023-02-12T23:48:38.487Z,10.00
2023-02-12T23:51:06.362Z,10.10
2023-02-12T23:53:34.348Z,10.10
2023-02-12T23:56:02.229Z,10.10
2023-02-12T23:58:30.155Z,10.10
